Flight Track Log - Related Links

Times and Time Zones

All times are in EDT time to prevent confusion due to time zone crossing. See the N616GB flight status page for this flight to view local times or setup timezone preferences in your user account.

Time Position Orientation Groundspeed Altitude Reporting Facility
EDT Latitude Longitude Course Direction KTS MPH feet Rate Location/Type
Fri 03:15:55 PM 49.8833 -97.2333 360° North 10 12 700  Level Winnipeg Center
Fri 03:18:32 PM 49.8833 -97.2333 327° Northwest 10 12 700  Level Winnipeg Center
Fri 03:20:32 PM 49.9000 -97.2333 360° North 20 23 700  Level Winnipeg Center
Fri 03:21:24 PM 49.9000 -97.2333 360° North 30 35 700 54 Level Winnipeg Center
Fri 03:22:24 PM 49.9167 -97.2333 360° North 10 12 800 133 Climbing Winnipeg Center
Fri 03:24:24 PM 49.9000 -97.2333 180° South 130 150 1,100 767 Climbing Winnipeg Center
Fri 03:25:24 PM 49.8667 -97.2000 147° Southeast 140 161 3,100 1,950 Climbing Winnipeg Center
Fri 03:26:24 PM 49.8333 -97.1667 147° Southeast 150 173 5,000 1,950 Climbing Winnipeg Center
Fri 03:27:24 PM 49.8000 -97.1167 136° Southeast 160 184 7,000 1,850 Climbing Winnipeg Center
Fri 03:28:24 PM 49.7667 -97.1000 162° South 170 196 8,700 1,800 Climbing Winnipeg Center
Fri 03:29:24 PM 49.7167 -97.1000 180° South 170 196 10,600 1,700 Climbing Winnipeg Center
Fri 03:30:24 PM 49.6667 -97.0667 157° South 180 207 12,100 1,500 Climbing Winnipeg Center
Fri 03:31:24 PM 49.6167 -97.0667 180° South 180 207 13,600 1,500 Climbing Winnipeg Center
Fri 03:32:24 PM 49.5667 -97.0667 180° South 180 207 15,100 1,350 Climbing Winnipeg Center
Fri 03:33:24 PM 49.5167 -97.0667 180° South 180 207 16,300 1,200 Climbing Winnipeg Center
Fri 03:34:24 PM 49.4500 -97.0667 180° South 190 219 17,500 1,000 Climbing Winnipeg Center
Fri 03:35:24 PM 49.4000 -97.0667 180° South 190 219 18,300 950 Climbing Winnipeg Center
Fri 03:36:24 PM 49.3500 -97.0667 180° South 200 230 19,400 1,000 Climbing Winnipeg Center
Fri 03:37:24 PM 49.3000 -97.0667 180° South 200 230 20,300 900 Climbing Winnipeg Center
Fri 03:38:24 PM 49.2333 -97.0667 180° South 200 230 21,200 900 Climbing Winnipeg Center
Fri 03:39:24 PM 49.1833 -97.0667 180° South 210 242 22,100 850 Climbing Winnipeg Center
Fri 03:40:24 PM 49.1167 -97.0500 171° South 210 242 22,900 750 Climbing Winnipeg Center
Fri 03:41:24 PM 49.0667 -97.0500 180° South 210 242 23,600 750 Climbing Winnipeg Center
Fri 03:42:24 PM 49.0000 -97.0500 180° South 210 242 24,400 750 Climbing Winnipeg Center
Fri 03:43:24 PM 48.9500 -97.0500 180° South 210 242 25,100 350 Climbing Winnipeg Center
Fri 03:44:24 PM 48.8833 -97.0500 180° South 220 253 25,100 -50 Level Winnipeg Center
Fri 03:45:24 PM 48.8167 -97.0500 180° South 240 276 25,000 -50 Descending Winnipeg Center
Fri 03:46:24 PM 48.7500 -97.0500 180° South 250 288 25,000  Level Winnipeg Center
Fri 03:46:40 PM 48.7403 -97.0494 178° South 248 285 25,000  Level Minneapolis Center
Fri 03:47:42 PM 48.6683 -97.0431 177° South 255 293 25,000  Level Minneapolis Center
Fri 03:48:44 PM 48.6106 -97.0389 177° South 259 298 25,000  Level Minneapolis Center
Fri 03:49:47 PM 48.5289 -97.0581 189° South 250 288 25,000  Level Minneapolis Center
Fri 03:50:49 PM 48.4586 -97.1136 208° Southwest 241 277 25,000  Level Minneapolis Center
Fri 03:51:51 PM 48.4108 -97.1761 221° Southwest 230 265 25,000  Level Minneapolis Center
Fri 03:52:53 PM 48.3631 -97.2403 222° Southwest 230 265 25,000  Level Minneapolis Center
Fri 03:53:55 PM 48.3169 -97.3053 223° Southwest 229 264 25,000  Level Minneapolis Center
Fri 03:54:57 PM 48.2711 -97.3703 223° Southwest 227 261 25,000  Level Minneapolis Center
Fri 03:55:59 PM 48.2164 -97.4511 225° Southwest 229 264 25,000  Level Minneapolis Center
Fri 03:57:01 PM 48.1714 -97.5158 224° Southwest 228 262 25,000  Level Minneapolis Center
Fri 03:58:03 PM 48.1269 -97.5817 225° Southwest 227 261 25,000  Level Minneapolis Center
Fri 03:59:05 PM 48.0825 -97.6489 225° Southwest 227 261 25,000  Level Minneapolis Center
Fri 04:00:07 PM 48.0383 -97.7147 225° Southwest 227 261 25,000  Level Minneapolis Center
Fri 04:01:09 PM 47.9944 -97.7825 226° Southwest 227 261 25,000  Level Minneapolis Center
Fri 04:02:11 PM 47.9428 -97.8608 225° Southwest 225 259 25,000  Level Minneapolis Center
Fri 04:03:14 PM 47.9014 -97.9258 226° Southwest 219 252 25,000  Level Minneapolis Center
Fri 04:04:16 PM 47.8606 -97.9894 226° Southwest 218 251 25,000  Level Minneapolis Center
Fri 04:05:18 PM 47.8219 -98.0514 227° Southwest 208 239 25,000 -49 Level Minneapolis Center
Fri 04:06:19 PM 47.8000 -98.1094 241° Southwest 204 235 24,900  Descending Minneapolis Center
Fri 04:07:22 PM 47.7333 -98.1711 212° Southwest 218 251 25,000 48 Climbing Minneapolis Center
Fri 04:08:24 PM 47.6647 -98.1650 177° South 239 275 25,000 -44 Level Minneapolis Center
Fri 04:09:38 PM 47.5825 -98.1428 170° South 248 285 24,900  Descending Minneapolis Center
Fri 04:10:41 PM 47.5128 -98.1214 168° South 254 292 25,000  Climbing Minneapolis Center
Fri 04:11:43 PM 47.4281 -98.0944 168° South 262 302 24,900 -48 Descending Minneapolis Center
Fri 04:12:45 PM 47.3575 -98.0650 164° South 266 306 24,900  Level Minneapolis Center
Fri 04:13:47 PM 47.2858 -98.0353 164° South 268 308 24,900  Level Minneapolis Center
Fri 04:14:49 PM 47.2150 -98.0053 164° South 268 308 24,900  Level Minneapolis Center
Fri 04:15:51 PM 47.1444 -97.9917 173° South 260 299 24,900  Level Minneapolis Center
Fri 04:16:53 PM 47.0597 -97.9947 181° South 255 293 24,900  Level Minneapolis Center
Fri 04:17:55 PM 46.9906 -98.0017 184° South 251 289 24,900  Level Minneapolis Center
Fri 04:18:57 PM 46.9214 -98.0114 185° South 250 288 24,900  Level Minneapolis Center
Fri 04:19:59 PM 46.8511 -98.0167 183° South 253 291 24,900  Level Minneapolis Center
Fri 04:21:01 PM 46.7811 -98.0203 182° South 252 290 24,900  Level Minneapolis Center
Fri 04:22:03 PM 46.7094 -98.0167 178° South 256 295 24,900  Level Minneapolis Center
Fri 04:23:05 PM 46.6236 -98.0147 179° South 257 296 24,900  Level Minneapolis Center
Fri 04:24:08 PM 46.5511 -98.0142 180° South 261 300 24,900  Level Minneapolis Center
Fri 04:25:10 PM 46.4786 -98.0142 180° South 260 299 24,900  Level Minneapolis Center
Fri 04:26:12 PM 46.4056 -98.0167 181° South 262 302 24,900  Level Minneapolis Center
Fri 04:27:14 PM 46.3325 -98.0164 180° South 262 302 24,900  Level Minneapolis Center
Fri 04:28:16 PM 46.2608 -98.0172 180° South 259 298 24,900  Level Minneapolis Center
Fri 04:29:18 PM 46.1747 -98.0183 181° South 258 297 24,900  Level Minneapolis Center
Fri 04:30:20 PM 46.1033 -98.0197 181° South 258 297 24,900  Level Minneapolis Center
Fri 04:31:22 PM 46.0303 -98.0217 181° South 262 302 24,900  Level Minneapolis Center
Fri 04:32:24 PM 45.9575 -98.0225 180° South 261 300 24,900  Level Minneapolis Center
Fri 04:33:26 PM 45.8864 -98.0239 181° South 258 297 24,900  Level Minneapolis Center
Fri 04:34:28 PM 45.8092 -98.0244 180° South 261 300 24,900  Level Minneapolis Center
Fri 04:35:30 PM 45.7383 -98.0261 181° South 256 295 24,900  Level Minneapolis Center
Fri 04:36:32 PM 45.6500 -98.0131 174° South 265 305 24,900  Level Minneapolis Center
Fri 04:37:37 PM 45.5786 -97.9883 166° South 265 305 24,900  Level Minneapolis Center
Fri 04:38:39 PM 45.5075 -97.9625 166° South 264 304 24,900  Level Minneapolis Center
Fri 04:39:41 PM 45.4347 -97.9375 166° South 268 308 24,900  Level Minneapolis Center
Fri 04:40:43 PM 45.3467 -97.9061 166° South 271 312 24,900  Level Minneapolis Center
Fri 04:41:45 PM 45.2758 -97.8789 165° South 266 306 24,900  Level Minneapolis Center
Fri 04:42:47 PM 45.2033 -97.8547 167° South 268 308 24,900  Level Minneapolis Center
Fri 04:43:49 PM 45.1294 -97.8281 166° South 274 315 24,900  Level Minneapolis Center
Fri 04:44:51 PM 45.0561 -97.8017 166° South 272 313 24,900  Level Minneapolis Center
Fri 04:45:53 PM 44.9881 -97.7522 153° Southeast 275 316 24,900 -484 Level Minneapolis Center
Fri 04:46:55 PM 44.9033 -97.6836 150° Southeast 292 336 23,900 -968 Descending Minneapolis Center
Fri 04:47:57 PM 44.8269 -97.6275 152° Southeast 307 353 22,900 -912 Descending Minneapolis Center
Fri 04:49:00 PM 44.7500 -97.5708 152° Southeast 312 359 22,000 -1,056 Descending Minneapolis Center
Fri 04:50:02 PM 44.6764 -97.5136 151° Southeast 308 354 20,700 -1,452 Descending Minneapolis Center
Fri 04:51:04 PM 44.6017 -97.4589 152° Southeast 305 351 19,000 -1,415 Descending Minneapolis Center
Fri 04:52:05 PM 44.5400 -97.4147 153° Southeast 308 354 17,800 -1,258 Descending Minneapolis Center
Fri 04:53:08 PM 44.4306 -97.3669 163° South 297 342 16,400 -1,440 Descending Minneapolis Center
Fri 04:54:10 PM 44.3533 -97.3378 165° South 290 334 14,800 -1,355 Descending Minneapolis Center
Fri 04:55:12 PM 44.2861 -97.2814 149° Southeast 285 328 13,600 -1,452 Descending Minneapolis Center
Fri 04:56:14 PM 44.2225 -97.2317 151° Southeast 268 308 11,800 -1,597 Descending Minneapolis Center
Fri 04:57:16 PM 44.1558 -97.2122 168° South 250 288 10,300 -1,645 Descending Minneapolis Center
Fri 04:58:18 PM 44.0761 -97.1908 169° South 247 284 8,400 -1,500 Descending Minneapolis Center
Fri 04:59:24 PM 44.0128 -97.1722 168° South 242 278 7,100 -1,172 Descending Minneapolis Center
Fri 05:00:26 PM 43.9594 -97.1253 148° Southeast 236 272 5,900 -1,113 Descending Minneapolis Center
Fri 05:01:28 PM 43.9092 -97.0664 140° Southeast 238 274 4,800 -919 Descending Minneapolis Center
Fri 05:02:30 PM 43.8497 -97.0039 143° Southeast 231 266 4,000 -387 Descending Minneapolis Center
Fri 05:03:32 PM 43.8011 -96.9542 144° Southeast 226 260 4,000 -194 Level Minneapolis Center
Fri 05:04:34 PM 43.7536 -96.9033 142° Southeast 222 255 3,600 -387 Descending Minneapolis Center
Fri 05:05:36 PM 43.7064 -96.8481 140° Southeast 221 254 3,200 -290 Descending Minneapolis Center
Fri 05:06:38 PM 43.6658 -96.8008 140° Southeast 212 244 3,000 -435 Descending Minneapolis Center
Fri 05:07:40 PM 43.6331 -96.7700 146° Southeast 154 177 2,300 -581 Descending Minneapolis Center
Fri 05:08:42 PM 43.6053 -96.7525 155° Southeast 128 147 1,800 -339 Descending Minneapolis Center
Fri 05:09:44 PM 43.5814 -96.7369 155° Southeast 121 139 1,600 -194 Descending Minneapolis Center
Fri 05:11:00 PM 43.5820 -96.7419 North  Level Estimated

Login

Don't have an account? Register now (free) for customized features, flight alerts, and more!